• Join FlightAware (Why Join?)
  • Login
  • US Flag 
01:19PM EDT


 

Airport Tracker/Info


-or-


 

Live Flight TrackerFlight Track Log ✈ ACA265 ✈ 16-May-2012 ✈ CYYZ - CYWG

Flight Track Log - Related Links

Times and Time Zones

All times are in EDT time to prevent confusion due to time zone crossing. See the ACA265 flight status page for this flight to view local times or setup timezone preferences in your user account.

Time Position Orientation Groundspeed Altitude Reporting Facility
EDT Latitude Longitude Course Direction KTS MPH feet Rate Location/Type
11:56AM 43.6500 -79.6500 297° West 160 184 2,300  Level Toronto Center
12:01PM 43.8000 -80.0667 319° Northwest 350 403 17,600 3,060 Climbing Toronto Center
12:02PM 43.8833 -80.1667 308° West 370 426 20,800 2,820 Climbing Toronto Center
12:03PM 43.9500 -80.2833 324° Northwest 370 426 23,300 2,280 Climbing Toronto Center
12:04PM 44.0333 -80.3667 311° West 380 437 25,400 1,920 Climbing Toronto Center
12:05PM 44.1167 -80.5000 309° West 400 460 27,200 1,560 Climbing Toronto Center
12:06PM 44.1833 -80.6167 315° West 410 472 28,600 1,500 Climbing Toronto Center
12:07PM 44.2667 -80.7333 309° West 420 483 30,200 1,500 Climbing Toronto Center
12:08PM 44.3333 -80.8500 309° West 420 483 31,700 1,440 Climbing Toronto Center
12:09PM 44.4000 -80.9667 311° West 420 483 33,100 1,200 Climbing Toronto Center
12:10PM 44.4833 -81.1000 315° West 430 495 34,100 1,080 Climbing Toronto Center
12:11PM 44.5667 -81.2167 311° West 440 506 35,300 1,200 Climbing Toronto Center
12:12PM 44.6500 -81.3500 311° West 440 506 36,500 1,080 Climbing Toronto Center
12:13PM 44.7333 -81.4833 315° West 440 506 37,500 720 Climbing Toronto Center
12:14PM 44.8167 -81.6000 311° West 430 495 38,000 240 Climbing Toronto Center
12:15PM 44.9000 -81.7333 311° West 440 506 38,000  Level Toronto Center
12:16PM 44.9833 -81.8667 305° West 440 506 38,000  Level Toronto Center
12:17PM 45.0500 -82.0000 312° West 450 518 38,000  Level Toronto Center
12:18PM 45.1333 -82.1333 308° West 440 506 38,000  Level Toronto Center
12:19PM 45.2167 -82.2833 315° West 450 518 38,000  Level Toronto Center
12:20PM 45.3000 -82.4000 312° West 440 506 38,000  Level Toronto Center
12:21PM 45.3833 -82.5333 308° West 450 518 38,000  Level Toronto Center
12:22PM 45.4667 -82.6833 309° West 440 506 38,000  Level Toronto Center
12:23PM 45.5333 -82.8000 308° West 440 506 38,000  Level Toronto Center
12:24PM 45.6167 -82.9500 309° West 440 506 38,000  Level Toronto Center
12:25PM 45.6833 -83.0667 312° West 430 495 38,000  Level Toronto Center
12:26PM 45.7667 -83.2000 316° Northwest 430 495 38,000  Level Toronto Center
12:27PM 45.8500 -83.3167 312° West 430 495 38,000  Level Toronto Center
12:28PM 45.9333 -83.4500 316° Northwest 430 495 38,000  Level Toronto Center
12:29PM 46.0167 -83.5667 312° West 430 495 38,000  Level Toronto Center
12:30PM 46.1000 -83.7000 316° Northwest 430 495 38,000  Level Toronto Center
12:31PM 46.1833 -83.8167 312° West 430 495 38,000  Level Toronto Center
12:32PM 46.2667 -83.9500 312° West 430 495 38,000  Level Toronto Center
12:33PM 46.3500 -84.0833 303° West 430 495 38,000  Level Toronto Center
12:34PM 46.4167 -84.2333 296° West 430 495 38,000  Level Toronto Center
12:35PM 46.4667 -84.3833 300° West 430 495 38,000  Level Toronto Center
12:36PM 46.5333 -84.5500 299° West 430 495 38,000  Level Toronto Center
12:37PM 46.5833 -84.6833 296° West 430 495 38,000  Level Toronto Center
12:38PM 46.6333 -84.8333 326° Northwest 420 483 38,000  Level Toronto Center
12:39PM 46.6667 -84.8667 299° West 430 495 38,000  Level Winnipeg Center
12:42PM 46.8333 -85.3167 294° West 420 483 38,000  Level Winnipeg Center
12:43PM 46.8833 -85.4833 299° West 430 495 38,000  Level Winnipeg Center
12:44PM 46.9333 -85.6167 297° West 430 495 38,000  Level Winnipeg Center
12:45PM 47.0333 -85.9000 296° West 430 495 38,000  Level Toronto Center
12:46PM 47.0833 -86.0500 303° West 430 495 38,000  Level Toronto Center
12:47PM 47.1500 -86.2000 296° West 430 495 38,000  Level Toronto Center
12:48PM 47.2000 -86.3500 294° West 430 495 38,000  Level Toronto Center
12:49PM 47.2500 -86.5167 296° West 420 483 38,000  Level Toronto Center
12:50PM 47.3000 -86.6667 303° West 420 483 38,000  Level Toronto Center
12:51PM 47.3667 -86.8167 306° West 420 483 38,000  Level Toronto Center
12:52PM 47.3833 -86.8500 296° West 420 483 38,000  Level Winnipeg Center
12:53PM 47.4333 -87.0000 294° West 430 495 38,000  Level Winnipeg Center
12:54PM 47.4833 -87.1667 303° West 430 495 38,000  Level Winnipeg Center
12:55PM 47.5500 -87.3167 296° West 420 483 38,000  Level Winnipeg Center
12:56PM 47.6000 -87.4667 301° West 420 483 38,000  Level Winnipeg Center
12:57PM 47.6667 -87.6333 288° West 420 483 38,000  Level Winnipeg Center
12:58PM 47.7000 -87.7833 296° West 420 483 38,000  Level Winnipeg Center
12:59PM 47.7500 -87.9333 301° West 420 483 38,000  Level Winnipeg Center
01:00PM 47.8167 -88.1000 299° West 420 483 38,000  Level Winnipeg Center
01:01PM 47.8667 -88.2333 287° West 420 483 38,000  Level Winnipeg Center
01:02PM 47.9000 -88.4000 297° West 410 472 38,000  Level Winnipeg Center
01:03PM 47.9500 -88.5500 307° West 410 472 38,000  Level Winnipeg Center
01:04PM 48.0167 -88.6833 294° West 410 472 38,000  Level Winnipeg Center
01:05PM 48.0667 -88.8500 295° West 410 472 38,000  Level Winnipeg Center
01:07PM 48.1667 -89.1667 297° West 410 472 38,000  Level Winnipeg Center
01:08PM 48.2167 -89.3167 287° West 410 472 38,000  Level Winnipeg Center
01:09PM 48.2500 -89.4833 294° West 410 472 38,000  Level Winnipeg Center
01:12PM 48.3833 -89.9333 294° West 410 472 38,000  Level Winnipeg Center
01:13PM 48.4333 -90.1000 289° West 410 472 38,000  Level Winnipeg Center
01:14PM 48.4667 -90.2500 295° West 410 472 38,000  Level Winnipeg Center
01:17PM 48.6167 -90.7333 291° West 410 472 38,000  Level Winnipeg Center
01:19PM 48.7000 -91.0667 300° West 400 460 38,000  Level Winnipeg Center
01:20PM 48.7500 -91.2000 285° West 400 460 38,000  Level Winnipeg Center
01:21PM 48.7833 -91.3833 293° West 400 460 38,000  Level Winnipeg Center
01:23PM 48.8667 -91.6833 291° West 400 460 38,000  Level Winnipeg Center
01:24PM 48.9000 -91.8167 293° West 400 460 38,000  Level Winnipeg Center
01:25PM 48.9500 -92.0000 289° West 400 460 38,000  Level Winnipeg Center
01:26PM 48.9833 -92.1500 295° West 400 460 38,000  Level Winnipeg Center
01:27PM 49.0333 -92.3167 289° West 400 460 38,000  Level Winnipeg Center
01:28PM 49.0667 -92.4667 297° West 400 460 38,000  Level Winnipeg Center
01:29PM 49.1167 -92.6167 286° West 400 460 38,000  Level Winnipeg Center
01:30PM 49.1500 -92.8000 289° West 400 460 38,000  Level Winnipeg Center
01:31PM 49.1833 -92.9500 295° West 400 460 38,000  Level Winnipeg Center
01:32PM 49.2333 -93.1167 289° West 390 449 38,000  Level Winnipeg Center
01:33PM 49.2667 -93.2667 287° West 400 460 38,000  Level Winnipeg Center
01:34PM 49.3000 -93.4333 304° West 400 460 38,000  Level Winnipeg Center
01:35PM 49.3667 -93.5833 280° West 400 460 38,000  Level Winnipeg Center
01:36PM 49.3833 -93.7333 295° West 390 449 38,000  Level Winnipeg Center
01:37PM 49.4333 -93.9000 280° West 390 449 38,000  Level Winnipeg Center
01:38PM 49.4500 -94.0500 278° West 390 449 38,000  Level Winnipeg Center
01:39PM 49.4667 -94.2333 280° West 400 460 38,000  Level Winnipeg Center
01:40PM 49.4833 -94.3833 270° West 400 460 38,000  Level Winnipeg Center
01:41PM 49.4833 -94.5667 270° West 400 460 38,000  Level Winnipeg Center
01:42PM 49.4833 -94.7500 276° West 400 460 38,000 -360 Level Winnipeg Center
01:45PM 49.5167 -95.2667 270° West 390 449 36,700 -960 Descending Winnipeg Center
01:46PM 49.5167 -95.4167 270° West 390 449 34,300 -2,820 Descending Winnipeg Center
01:47PM 49.5167 -95.6000 270° West 390 449 31,100 -3,120 Descending Winnipeg Center
01:48PM 49.5167 -95.7500 287° West 380 437 28,100 -2,820 Descending Winnipeg Center
01:49PM 49.5500 -95.9167 294° West 370 426 25,500 -2,640 Descending Winnipeg Center
01:50PM 49.5833 -96.0333 297° West 360 414 22,900 -2,700 Descending Winnipeg Center
01:51PM 49.6333 -96.1833 291° West 350 403 20,200 -2,700 Descending Winnipeg Center
01:52PM 49.6667 -96.3167 300° West 340 391 17,600 -2,700 Descending Winnipeg Center
01:53PM 49.7167 -96.4500 291° West 330 380 14,900 -2,580 Descending Winnipeg Center
01:54PM 49.7500 -96.5833 294° West 330 380 12,500 -2,220 Descending Winnipeg Center
01:55PM 49.7833 -96.7000 302° West 320 368 10,500 -1,560 Descending Winnipeg Center
01:56PM 49.8167 -96.7833 321° Northwest 280 322 9,400 -1,560 Descending Winnipeg Center
01:57PM 49.8833 -96.8667 319° Northwest 270 311 7,400 -1,860 Descending Winnipeg Center
01:58PM 49.9333 -96.9333 313° West 270 311 5,700 -1,320 Descending Winnipeg Center
01:59PM 49.9833 -97.0167 327° Northwest 250 288 4,800 -900 Descending Winnipeg Center
02:00PM 50.0333 -97.0667 270° West 220 253 4,000 -720 Descending Winnipeg Center
02:01PM 50.0333 -97.1667 213° Southwest 200 230 3,400 -840 Descending Winnipeg Center
02:02PM 50.0000 -97.2000 203° Southwest 180 207 2,400 -900 Descending Winnipeg Center
02:03PM 49.9500 -97.2333 203° Southwest 160 184 1,600 -840 Descending Winnipeg Center